createdAt,value
2019-03-25T00:00:42.310Z,14.80
2019-03-25T00:03:12.020Z,17.48
2019-03-25T00:05:41.119Z,16.10
2019-03-25T00:08:11.128Z,17.48
2019-03-25T00:10:40.020Z,16.13
2019-03-25T00:13:09.935Z,16.48
2019-03-25T00:15:38.829Z,15.27
2019-03-25T00:18:08.334Z,16.03
2019-03-25T00:20:37.222Z,16.77
2019-03-25T00:23:06.114Z,15.80
2019-03-25T00:25:36.129Z,16.30
2019-03-25T00:28:05.021Z,15.23
2019-03-25T00:30:33.915Z,15.97
2019-03-25T00:33:02.804Z,15.30
2019-03-25T00:35:31.697Z,15.03
2019-03-25T00:38:00.917Z,15.73
2019-03-25T00:40:29.784Z,15.97
2019-03-25T00:42:58.677Z,16.47
2019-03-25T00:45:27.670Z,14.25
2019-03-25T00:47:56.564Z,13.40
2019-03-25T00:50:25.452Z,13.75
2019-03-25T00:52:54.343Z,13.93
2019-03-25T00:55:23.234Z,14.47
2019-03-25T00:57:52.126Z,14.70
2019-03-25T01:00:21.123Z,13.07
2019-03-25T01:02:50.013Z,14.53
2019-03-25T01:05:19.628Z,13.72
2019-03-25T01:07:49.145Z,14.20
2019-03-25T01:10:18.528Z,14.63
2019-03-25T01:12:47.818Z,14.03
2019-03-25T01:15:17.328Z,13.55
2019-03-25T01:17:46.255Z,12.77
2019-03-25T01:20:15.237Z,13.00
2019-03-25T01:22:44.112Z,12.70
2019-03-25T01:25:13.921Z,12.37
2019-03-25T01:27:42.815Z,12.63
2019-03-25T01:30:12.629Z,11.80
2019-03-25T01:32:41.519Z,12.57
2019-03-25T01:35:11.777Z,13.18
2019-03-25T01:37:40.633Z,13.03
2019-03-25T01:40:10.679Z,13.73
2019-03-25T01:42:39.746Z,12.77
2019-03-25T01:45:09.658Z,13.70
2019-03-25T01:47:38.551Z,13.87
2019-03-25T01:50:08.452Z,14.63
2019-03-25T01:52:37.383Z,15.47
2019-03-25T01:55:13.333Z,15.93
2019-03-25T01:57:37.292Z,13.33
2019-03-25T02:00:07.922Z,14.17
2019-03-25T02:02:36.818Z,13.57
2019-03-25T02:05:07.014Z,14.87
2019-03-25T02:07:35.824Z,13.93
2019-03-25T02:10:06.626Z,14.73
2019-03-25T02:12:35.553Z,13.70
2019-03-25T02:15:05.059Z,13.87
2019-03-25T02:17:33.953Z,14.70
2019-03-25T02:20:02.945Z,13.43
2019-03-25T02:22:31.873Z,14.30
2019-03-25T02:25:00.832Z,14.07
2019-03-25T02:27:29.720Z,14.13
2019-03-25T02:29:58.611Z,13.93
2019-03-25T02:32:27.606Z,13.77
2019-03-25T02:34:56.499Z,14.30
2019-03-25T02:37:25.391Z,13.88
2019-03-25T02:39:54.278Z,14.20
2019-03-25T02:42:23.188Z,14.13
2019-03-25T02:44:52.059Z,15.27
2019-03-25T02:47:21.050Z,13.90
2019-03-25T02:49:49.949Z,15.70
2019-03-25T02:52:18.838Z,15.97
2019-03-25T02:54:47.729Z,17.30
2019-03-25T02:57:16.615Z,15.10
2019-03-25T02:59:45.541Z,15.43
2019-03-25T03:02:14.400Z,14.95
2019-03-25T03:04:43.291Z,16.10
2019-03-25T03:07:12.183Z,16.57
2019-03-25T03:09:41.071Z,15.57
2019-03-25T03:12:10.786Z,15.38
2019-03-25T03:14:39.677Z,16.37
2019-03-25T03:17:09.569Z,15.05
2019-03-25T03:19:38.485Z,15.33
2019-03-25T03:22:07.663Z,16.10
2019-03-25T03:24:36.572Z,16.53
2019-03-25T03:27:05.573Z,15.23
2019-03-25T03:29:34.584Z,14.70
2019-03-25T03:32:03.400Z,15.17
2019-03-25T03:34:32.270Z,16.27
2019-03-25T03:37:01.238Z,14.63
2019-03-25T03:39:30.124Z,14.90
2019-03-25T03:41:59.016Z,15.33
2019-03-25T03:44:27.921Z,14.77
2019-03-25T03:46:56.802Z,16.60
2019-03-25T03:49:25.699Z,15.47
2019-03-25T03:51:56.109Z,16.80
2019-03-25T03:54:25.113Z,17.03
2019-03-25T03:56:55.713Z,17.47
2019-03-25T03:59:25.180Z,18.90
2019-03-25T04:01:54.143Z,20.50
2019-03-25T04:04:23.031Z,19.90
2019-03-25T04:06:51.920Z,19.73
2019-03-25T04:09:20.829Z,20.43
2019-03-25T04:11:49.809Z,21.10
2019-03-25T04:14:18.697Z,19.73
2019-03-25T04:16:47.594Z,19.83
2019-03-25T04:19:16.580Z,18.83
2019-03-25T04:21:45.472Z,18.90
2019-03-25T04:24:14.362Z,20.82
2019-03-25T04:26:43.256Z,20.03
2019-03-25T04:29:12.363Z,19.87
2019-03-25T04:31:41.244Z,20.50
2019-03-25T04:34:10.850Z,20.40
2019-03-25T04:36:39.843Z,20.53
2019-03-25T04:39:09.875Z,21.03
2019-03-25T04:41:38.753Z,21.77
2019-03-25T04:44:08.766Z,22.13
2019-03-25T04:46:37.659Z,22.67
2019-03-25T04:49:07.464Z,23.90
2019-03-25T04:51:36.364Z,21.73
2019-03-25T04:54:05.255Z,23.47
2019-03-25T04:56:39.915Z,24.20
2019-03-25T04:59:06.210Z,25.37
2019-03-25T05:01:35.136Z,24.93
2019-03-25T05:04:03.993Z,26.27
2019-03-25T05:06:32.883Z,25.60
2019-03-25T05:09:01.880Z,25.10
2019-03-25T05:11:31.109Z,24.67
2019-03-25T05:14:00.072Z,24.13
2019-03-25T05:16:28.962Z,25.20
2019-03-25T05:18:57.855Z,24.50
2019-03-25T05:21:26.744Z,24.03
2019-03-25T05:23:55.635Z,24.67
2019-03-25T05:26:24.529Z,23.17
2019-03-25T05:28:53.416Z,23.67
2019-03-25T05:31:22.314Z,23.60
2019-03-25T05:33:51.201Z,23.90
2019-03-25T05:36:20.091Z,23.43
2019-03-25T05:38:48.982Z,24.13
2019-03-25T05:41:17.876Z,22.20
2019-03-25T05:43:46.762Z,24.07
2019-03-25T05:46:15.656Z,22.03
2019-03-25T05:48:44.554Z,24.03
2019-03-25T05:51:13.436Z,23.95
2019-03-25T05:53:42.329Z,22.87
2019-03-25T05:56:12.360Z,22.82
2019-03-25T05:58:41.236Z,22.67
2019-03-25T06:01:10.996Z,24.87
2019-03-25T06:03:39.841Z,24.43
2019-03-25T06:06:09.652Z,23.15
2019-03-25T06:08:38.542Z,25.10
2019-03-25T06:11:09.175Z,22.82
2019-03-25T06:13:38.066Z,22.97
2019-03-25T06:16:06.909Z,22.83
2019-03-25T06:18:35.745Z,23.63
2019-03-25T06:21:04.638Z,26.23
2019-03-25T06:23:33.529Z,24.03
2019-03-25T06:26:02.419Z,23.80
2019-03-25T06:28:31.311Z,25.20
2019-03-25T06:31:00.305Z,23.60
2019-03-25T06:33:29.198Z,23.27
2019-03-25T06:35:58.087Z,25.33
2019-03-25T06:38:26.980Z,25.57
2019-03-25T06:40:55.869Z,23.73
2019-03-25T06:43:24.759Z,24.13
2019-03-25T06:45:53.708Z,23.33
2019-03-25T06:48:22.644Z,24.23
2019-03-25T06:50:51.643Z,23.63
2019-03-25T06:53:20.527Z,25.27
2019-03-25T06:55:49.524Z,26.13
2019-03-25T06:58:18.419Z,28.27
2019-03-25T07:00:47.306Z,34.17
2019-03-25T07:03:16.195Z,28.40
2019-03-25T07:05:45.210Z,23.57
2019-03-25T07:08:14.080Z,22.87
2019-03-25T07:10:45.223Z,27.37
2019-03-25T07:13:14.116Z,30.53
2019-03-25T07:15:44.187Z,32.90
2019-03-25T07:18:13.436Z,31.57
2019-03-25T07:20:42.328Z,31.47
2019-03-25T07:23:13.980Z,30.60
2019-03-25T07:25:42.871Z,28.57
2019-03-25T07:28:12.172Z,27.70
2019-03-25T07:30:41.069Z,27.63
2019-03-25T07:33:10.979Z,26.33
2019-03-25T07:35:39.871Z,27.90
2019-03-25T07:38:09.102Z,27.73
2019-03-25T07:40:37.962Z,27.87
2019-03-25T07:43:08.368Z,28.87
2019-03-25T07:45:37.385Z,28.87
2019-03-25T07:48:06.274Z,28.27
2019-03-25T07:50:35.166Z,29.70
2019-03-25T07:53:04.056Z,29.27
2019-03-25T07:55:33.070Z,28.47
2019-03-25T07:58:04.503Z,29.63
2019-03-25T08:00:33.419Z,30.10
2019-03-25T08:03:02.303Z,29.20
2019-03-25T08:05:31.287Z,32.37
2019-03-25T08:08:00.165Z,32.20
2019-03-25T08:10:33.574Z,31.80
2019-03-25T08:13:02.725Z,33.97
2019-03-25T08:15:31.971Z,34.30
2019-03-25T08:18:01.268Z,35.07
2019-03-25T08:20:30.155Z,34.90
2019-03-25T08:22:59.150Z,35.87
2019-03-25T08:25:28.041Z,37.43
2019-03-25T08:28:00.165Z,37.50
2019-03-25T08:30:27.704Z,37.33
2019-03-25T08:32:56.558Z,36.37
2019-03-25T08:35:25.451Z,40.13
2019-03-25T08:37:54.341Z,41.03
2019-03-25T08:40:23.336Z,41.30
2019-03-25T08:42:52.224Z,39.43
2019-03-25T08:45:21.114Z,40.37
2019-03-25T08:47:50.013Z,38.80
2019-03-25T08:50:19.014Z,39.57
2019-03-25T08:52:47.893Z,39.47
2019-03-25T08:55:16.779Z,40.93
2019-03-25T08:57:45.670Z,38.30
2019-03-25T09:00:16.114Z,39.40
2019-03-25T09:02:44.991Z,39.17
2019-03-25T09:05:14.092Z,35.67
2019-03-25T09:07:42.977Z,38.50
2019-03-25T09:10:13.156Z,38.38
2019-03-25T09:12:41.995Z,39.20
2019-03-25T09:15:12.521Z,38.60
2019-03-25T09:17:41.412Z,36.23
2019-03-25T09:20:11.009Z,36.10
2019-03-25T09:22:39.917Z,36.23
2019-03-25T09:25:10.590Z,36.33
2019-03-25T09:27:39.537Z,37.67
2019-03-25T09:30:10.442Z,36.20
2019-03-25T09:32:39.262Z,34.80
2019-03-25T09:35:09.177Z,34.38
2019-03-25T09:37:39.081Z,37.27
2019-03-25T09:40:09.850Z,34.57
2019-03-25T09:42:38.824Z,34.17
2019-03-25T09:45:08.727Z,33.30
2019-03-25T09:47:38.146Z,27.27
2019-03-25T09:50:08.237Z,25.57
2019-03-25T09:52:38.839Z,26.17
2019-03-25T09:55:08.889Z,25.93
2019-03-25T09:57:39.589Z,25.77
2019-03-25T10:00:12.271Z,24.97
2019-03-25T10:02:41.110Z,26.20
2019-03-25T10:05:10.653Z,25.17
2019-03-25T10:07:39.509Z,25.43
2019-03-25T10:10:08.711Z,23.60
2019-03-25T10:12:37.596Z,24.70
2019-03-25T10:15:08.702Z,27.70
2019-03-25T10:17:37.530Z,26.23
2019-03-25T10:20:08.119Z,24.97
2019-03-25T10:22:37.052Z,25.67
2019-03-25T10:25:09.518Z,26.37
2019-03-25T10:27:38.422Z,24.97
2019-03-25T10:30:12.459Z,25.97
2019-03-25T10:32:41.425Z,24.63
2019-03-25T10:35:11.789Z,24.85
2019-03-25T10:37:40.643Z,24.20
2019-03-25T10:40:10.592Z,24.03
2019-03-25T10:42:39.449Z,22.97
2019-03-25T10:45:10.694Z,24.63
2019-03-25T10:47:39.585Z,25.30
2019-03-25T10:50:09.489Z,25.10
2019-03-25T10:52:38.492Z,27.13
2019-03-25T10:55:08.069Z,25.03
2019-03-25T10:57:37.094Z,25.43
2019-03-25T11:00:07.785Z,23.83
2019-03-25T11:02:36.620Z,23.93
2019-03-25T11:05:07.366Z,23.23
2019-03-25T11:07:36.424Z,23.80
2019-03-25T11:10:08.129Z,23.57
2019-03-25T11:12:37.097Z,22.90
2019-03-25T11:15:09.876Z,23.40
2019-03-25T11:17:38.771Z,23.20
2019-03-25T11:20:08.385Z,22.33
2019-03-25T11:22:37.374Z,23.10
2019-03-25T11:25:07.761Z,22.20
2019-03-25T11:27:36.691Z,21.80
2019-03-25T11:30:08.089Z,22.37
2019-03-25T11:32:36.930Z,22.37
2019-03-25T11:35:07.509Z,22.40
2019-03-25T11:37:36.355Z,22.87
2019-03-25T11:40:08.799Z,19.90
2019-03-25T11:42:37.719Z,19.47
2019-03-25T11:45:09.519Z,20.73
2019-03-25T11:47:38.518Z,20.77
2019-03-25T11:50:10.438Z,21.97
2019-03-25T11:52:39.325Z,20.63
2019-03-25T11:55:08.525Z,19.83
2019-03-25T11:57:37.413Z,19.67
2019-03-25T12:00:09.943Z,19.37
2019-03-25T12:02:38.884Z,19.33
2019-03-25T12:05:08.999Z,20.10
2019-03-25T12:07:37.900Z,18.70
2019-03-25T12:10:07.654Z,17.83
2019-03-25T12:12:36.596Z,17.03
2019-03-25T12:15:07.331Z,15.87
2019-03-25T12:17:36.325Z,16.50
2019-03-25T12:20:07.161Z,17.70
2019-03-25T12:22:36.087Z,18.43
2019-03-25T12:25:06.790Z,13.87
2019-03-25T12:27:35.685Z,14.40
2019-03-25T12:30:06.620Z,12.87
2019-03-25T12:32:35.512Z,12.73
2019-03-25T12:35:08.351Z,9.97
2019-03-25T12:37:37.287Z,12.23
2019-03-25T12:40:07.904Z,10.63
2019-03-25T12:42:37.118Z,11.47
2019-03-25T12:45:10.695Z,11.20
2019-03-25T12:47:39.608Z,9.87
2019-03-25T12:50:09.733Z,9.73
2019-03-25T12:52:38.640Z,10.00
2019-03-25T12:55:07.927Z,10.40
2019-03-25T12:57:36.812Z,8.57
2019-03-25T13:00:07.552Z,7.90
2019-03-25T13:02:36.437Z,8.67
2019-03-25T13:05:07.332Z,9.73
2019-03-25T13:07:36.166Z,10.23
2019-03-25T13:10:06.470Z,8.43
2019-03-25T13:12:35.384Z,7.60
2019-03-25T13:15:05.181Z,6.97
2019-03-25T13:17:34.085Z,6.90
2019-03-25T13:20:04.612Z,6.60
2019-03-25T13:22:33.510Z,6.83
2019-03-25T13:25:02.400Z,7.63
2019-03-25T13:27:31.287Z,7.40
2019-03-25T13:30:00.285Z,6.50
2019-03-25T13:32:29.377Z,9.20
2019-03-25T13:34:58.268Z,9.53
2019-03-25T13:37:27.159Z,8.83
2019-03-25T13:39:57.460Z,7.33
2019-03-25T13:42:26.380Z,6.33
2019-03-25T13:44:57.609Z,4.90
2019-03-25T13:47:25.899Z,3.45
2019-03-25T13:49:54.693Z,4.30
2019-03-25T13:52:23.579Z,3.37
2019-03-25T13:54:52.468Z,3.53
2019-03-25T13:57:21.361Z,2.70
2019-03-25T13:59:50.251Z,2.77
2019-03-25T14:02:19.146Z,3.30
2019-03-25T14:04:48.055Z,3.17
2019-03-25T14:07:16.924Z,2.80
2019-03-25T14:09:45.815Z,2.83
2019-03-25T14:12:14.706Z,2.47
2019-03-25T14:14:43.607Z,3.00
2019-03-25T14:17:13.702Z,2.90
2019-03-25T14:19:42.613Z,3.30
2019-03-25T14:22:12.219Z,3.65
2019-03-25T14:24:42.133Z,3.13
2019-03-25T14:27:11.229Z,3.10
2019-03-25T14:29:40.119Z,3.10
2019-03-25T14:32:09.816Z,3.58
2019-03-25T14:34:44.777Z,3.70
2019-03-25T14:37:10.071Z,3.62
2019-03-25T14:39:38.962Z,4.43
2019-03-25T14:42:08.879Z,3.80
2019-03-25T14:44:37.770Z,4.03
2019-03-25T14:47:06.571Z,4.23
2019-03-25T14:49:36.681Z,4.20
2019-03-25T14:52:05.573Z,4.40
2019-03-25T14:54:35.898Z,4.87
2019-03-25T14:57:04.891Z,4.07
2019-03-25T14:59:33.885Z,4.17
2019-03-25T15:02:02.770Z,4.23
2019-03-25T15:04:31.662Z,4.40
2019-03-25T15:07:00.552Z,4.30
2019-03-25T15:09:29.450Z,4.83
2019-03-25T15:11:58.335Z,4.40
2019-03-25T15:14:27.329Z,3.60
2019-03-25T15:16:56.327Z,4.77
2019-03-25T15:19:25.214Z,4.23
2019-03-25T15:21:54.110Z,4.27
2019-03-25T15:24:22.995Z,4.55
2019-03-25T15:26:51.890Z,3.50
2019-03-25T15:29:20.779Z,3.70
2019-03-25T15:31:49.672Z,3.77
2019-03-25T15:34:20.098Z,3.47
2019-03-25T15:36:48.991Z,3.10
2019-03-25T15:39:17.888Z,3.07
2019-03-25T15:41:47.328Z,3.33
2019-03-25T15:44:16.380Z,3.17
2019-03-25T15:46:55.349Z,2.60
2019-03-25T15:49:15.885Z,2.20
2019-03-25T15:51:44.694Z,2.27
2019-03-25T15:54:13.588Z,2.12
2019-03-25T15:56:42.476Z,2.27
2019-03-25T15:59:12.084Z,2.27
2019-03-25T16:01:41.077Z,2.50
2019-03-25T16:04:10.480Z,2.30
2019-03-25T16:06:39.370Z,2.20
2019-03-25T16:09:09.507Z,2.17
2019-03-25T16:11:38.379Z,2.10
2019-03-25T16:14:07.987Z,1.87
2019-03-25T16:16:37.112Z,2.00
2019-03-25T16:19:05.978Z,1.70
2019-03-25T16:21:34.845Z,1.60
2019-03-25T16:24:03.656Z,1.67
2019-03-25T16:26:32.552Z,1.77
2019-03-25T16:29:01.437Z,1.87
2019-03-25T16:31:30.371Z,1.90
2019-03-25T16:33:59.219Z,2.17
2019-03-25T16:36:28.112Z,1.77
2019-03-25T16:38:57.003Z,1.70
2019-03-25T16:41:25.898Z,2.43
2019-03-25T16:43:54.700Z,1.77
2019-03-25T16:46:23.576Z,1.57
2019-03-25T16:48:54.978Z,1.57
2019-03-25T16:51:23.098Z,1.62
2019-03-25T16:53:51.987Z,1.80
2019-03-25T16:56:20.881Z,1.57
2019-03-25T16:58:49.770Z,1.37
2019-03-25T17:01:18.662Z,1.40
2019-03-25T17:03:47.553Z,1.13
2019-03-25T17:06:16.552Z,1.37
2019-03-25T17:08:45.437Z,1.27
2019-03-25T17:11:14.387Z,1.60
2019-03-25T17:13:43.329Z,1.63
2019-03-25T17:16:12.213Z,1.53
2019-03-25T17:18:41.160Z,1.33
2019-03-25T17:21:12.625Z,1.27
2019-03-25T17:23:42.982Z,1.20
2019-03-25T17:26:12.078Z,1.00
2019-03-25T17:28:41.075Z,1.23
2019-03-25T17:31:20.562Z,1.20
2019-03-25T17:33:42.847Z,1.37
2019-03-25T17:36:11.945Z,1.30
2019-03-25T17:38:40.841Z,1.10
2019-03-25T17:41:09.832Z,1.30
2019-03-25T17:43:38.721Z,1.37
2019-03-25T17:46:08.532Z,1.10
2019-03-25T17:48:37.428Z,1.20
2019-03-25T17:51:07.338Z,1.12
2019-03-25T17:53:36.230Z,1.20
2019-03-25T17:56:06.964Z,1.43
2019-03-25T17:58:35.760Z,1.60
2019-03-25T18:01:07.625Z,1.20
2019-03-25T18:03:37.941Z,1.43
2019-03-25T18:06:07.858Z,1.20
2019-03-25T18:08:36.852Z,1.37
2019-03-25T18:11:07.106Z,1.50
2019-03-25T18:13:37.395Z,1.60
2019-03-25T18:16:06.324Z,2.00
2019-03-25T18:18:35.181Z,1.60
2019-03-25T18:21:04.072Z,1.60
2019-03-25T18:23:32.959Z,1.63
2019-03-25T18:26:02.977Z,1.97
2019-03-25T18:28:32.049Z,1.53
2019-03-25T18:31:00.866Z,1.70
2019-03-25T18:33:29.753Z,1.97
2019-03-25T18:35:58.656Z,1.70
2019-03-25T18:38:27.637Z,2.27
2019-03-25T18:40:57.964Z,1.67
2019-03-25T18:43:26.856Z,1.60
2019-03-25T18:45:55.743Z,1.90
2019-03-25T18:48:24.637Z,2.00
2019-03-25T18:50:53.529Z,1.73
2019-03-25T18:53:22.417Z,1.87
2019-03-25T18:55:51.531Z,2.10
2019-03-25T18:58:20.406Z,2.63
2019-03-25T19:00:49.313Z,2.33
2019-03-25T19:03:18.626Z,2.47
2019-03-25T19:05:47.722Z,1.90
2019-03-25T19:08:17.714Z,2.12
2019-03-25T19:10:46.961Z,2.33
2019-03-25T19:13:15.800Z,3.08
2019-03-25T19:15:44.712Z,2.90
2019-03-25T19:18:13.591Z,2.47
2019-03-25T19:20:42.481Z,2.80
2019-03-25T19:23:12.288Z,3.45
2019-03-25T19:25:41.202Z,4.30
2019-03-25T19:28:10.384Z,2.80
2019-03-25T19:30:39.270Z,3.07
2019-03-25T19:33:08.689Z,2.90
2019-03-25T19:35:37.679Z,2.97
2019-03-25T19:38:07.485Z,3.33
2019-03-25T19:40:37.873Z,2.70
2019-03-25T19:43:07.664Z,2.40
2019-03-25T19:45:36.519Z,2.30
2019-03-25T19:48:05.499Z,2.40
2019-03-25T19:50:34.413Z,2.53
2019-03-25T19:53:03.285Z,2.50
2019-03-25T19:55:32.206Z,2.67
2019-03-25T19:58:01.103Z,2.67
2019-03-25T20:00:35.798Z,3.17
2019-03-25T20:03:05.093Z,2.43
2019-03-25T20:05:34.189Z,2.77
2019-03-25T20:08:03.275Z,3.10
2019-03-25T20:10:34.398Z,2.67
2019-03-25T20:13:03.325Z,2.40
2019-03-25T20:15:44.949Z,2.80
2019-03-25T20:18:02.931Z,2.20
2019-03-25T20:20:36.043Z,2.83
2019-03-25T20:23:05.342Z,2.37
2019-03-25T20:25:34.238Z,2.13
2019-03-25T20:28:04.455Z,2.60
2019-03-25T20:30:33.346Z,2.60
2019-03-25T20:33:02.345Z,2.60
2019-03-25T20:35:31.285Z,2.67
2019-03-25T20:38:00.263Z,2.47
2019-03-25T20:40:29.172Z,2.80
2019-03-25T20:42:58.073Z,2.80
2019-03-25T20:45:27.096Z,3.00
2019-03-25T20:47:56.061Z,2.27
2019-03-25T20:50:27.239Z,2.52
2019-03-25T20:52:56.051Z,2.13
2019-03-25T20:55:24.919Z,2.33
2019-03-25T20:57:53.853Z,2.63
2019-03-25T21:00:47.919Z,2.70
2019-03-25T21:03:17.221Z,2.73
2019-03-25T21:05:46.221Z,2.07
2019-03-25T21:08:15.291Z,2.50
2019-03-25T21:10:44.351Z,2.53
2019-03-25T21:13:13.475Z,2.67
2019-03-25T21:15:42.382Z,2.53
2019-03-25T21:18:11.459Z,2.20
2019-03-25T21:20:40.349Z,2.27
2019-03-25T21:23:09.958Z,2.63
2019-03-25T21:25:38.876Z,3.00
2019-03-25T21:28:08.051Z,2.70
2019-03-25T21:30:47.479Z,2.87
2019-03-25T21:33:08.593Z,2.47
2019-03-25T21:35:37.587Z,2.70
2019-03-25T21:38:06.527Z,2.10
2019-03-25T21:40:35.370Z,2.70
2019-03-25T21:43:04.259Z,2.53
2019-03-25T21:45:33.152Z,2.67
2019-03-25T21:48:02.154Z,2.37
2019-03-25T21:50:31.302Z,2.43
2019-03-25T21:53:00.133Z,2.93
2019-03-25T21:55:29.233Z,2.50
2019-03-25T21:57:58.208Z,2.33
2019-03-25T22:00:27.116Z,2.00
2019-03-25T22:02:56.003Z,2.80
2019-03-25T22:05:24.894Z,2.80
2019-03-25T22:07:53.925Z,2.40
2019-03-25T22:10:22.780Z,2.53
2019-03-25T22:12:51.675Z,2.30
2019-03-25T22:15:20.664Z,2.47
2019-03-25T22:17:49.556Z,2.47
2019-03-25T22:20:18.552Z,2.33
2019-03-25T22:22:47.443Z,2.10
2019-03-25T22:25:16.434Z,2.70
2019-03-25T22:27:45.429Z,2.33
2019-03-25T22:30:14.813Z,2.40
2019-03-25T22:32:43.621Z,2.13
2019-03-25T22:35:12.921Z,2.47
2019-03-25T22:37:41.816Z,2.10
2019-03-25T22:40:12.140Z,2.33
2019-03-25T22:42:41.027Z,2.23
2019-03-25T22:45:11.046Z,2.35
2019-03-25T22:47:39.939Z,1.90
2019-03-25T22:50:13.825Z,2.12
2019-03-25T22:52:42.706Z,2.17
2019-03-25T22:55:12.755Z,2.20
2019-03-25T22:57:41.645Z,1.77
2019-03-25T23:00:11.574Z,2.20
2019-03-25T23:02:40.451Z,2.80
2019-03-25T23:05:10.041Z,2.55
2019-03-25T23:07:38.848Z,2.10
2019-03-25T23:10:08.644Z,1.92
2019-03-25T23:12:39.345Z,2.10
2019-03-25T23:15:09.313Z,2.35
2019-03-25T23:17:38.204Z,2.30
2019-03-25T23:20:07.487Z,2.53
2019-03-25T23:22:36.399Z,1.73
2019-03-25T23:25:06.586Z,2.27
2019-03-25T23:27:35.714Z,1.70
2019-03-25T23:30:07.111Z,1.77
2019-03-25T23:32:36.321Z,2.23
2019-03-25T23:35:06.499Z,2.00
2019-03-25T23:37:35.379Z,2.23
2019-03-25T23:40:06.063Z,2.20
2019-03-25T23:42:36.024Z,2.10
2019-03-25T23:45:06.947Z,1.90
2019-03-25T23:47:37.390Z,1.87
2019-03-25T23:50:07.405Z,2.07
2019-03-25T23:52:40.560Z,1.80
2019-03-25T23:55:11.054Z,2.57
2019-03-25T23:57:39.915Z,2.00
